createdAt,value
2022-09-15T14:05:29.116Z,85.16
2022-09-15T14:08:03.581Z,85.12
2022-09-15T14:10:35.914Z,84.94
2022-09-15T14:13:02.674Z,86.15
2022-09-15T14:15:29.373Z,86.32
2022-09-15T14:17:56.593Z,85.64
2022-09-15T14:20:31.673Z,86.32
2022-09-15T14:22:59.453Z,84.72
2022-09-15T14:25:28.809Z,85.79
2022-09-15T14:27:55.929Z,85.58
2022-09-15T14:30:31.051Z,85.08
2022-09-15T14:33:01.144Z,83.28
2022-09-15T14:35:36.272Z,83.13
2022-09-15T14:38:03.101Z,83.19
2022-09-15T14:40:38.040Z,83.33
2022-09-15T14:43:23.181Z,83.87
2022-09-15T14:45:55.375Z,85.00
2022-09-15T14:48:27.427Z,86.39
2022-09-15T14:51:02.286Z,86.47
2022-09-15T14:53:31.857Z,85.60
2022-09-15T14:56:08.306Z,85.77
2022-09-15T14:58:46.397Z,85.93
2022-09-15T15:01:24.645Z,85.33
2022-09-15T15:04:20.611Z,85.38
2022-09-15T15:07:02.139Z,85.31
2022-09-15T15:09:33.758Z,85.89
2022-09-15T15:12:13.666Z,84.94
2022-09-15T15:14:41.811Z,85.11
2022-09-15T15:17:27.021Z,83.22
2022-09-15T15:20:15.359Z,81.18
2022-09-15T15:22:43.595Z,81.06
2022-09-15T15:25:29.341Z,80.51
2022-09-15T15:27:57.552Z,81.06
2022-09-15T15:30:26.010Z,82.29
2022-09-15T15:32:53.459Z,80.51
2022-09-15T15:35:20.532Z,81.67
2022-09-15T15:37:47.277Z,80.87
2022-09-15T15:40:17.871Z,81.86
2022-09-15T15:43:01.473Z,80.77
2022-09-15T15:45:32.020Z,81.95
2022-09-15T15:48:00.359Z,80.92
2022-09-15T15:50:27.634Z,81.42
2022-09-15T15:52:55.266Z,82.12
2022-09-15T15:55:24.639Z,83.37
2022-09-15T15:57:53.189Z,83.59
2022-09-15T16:00:24.489Z,82.78
2022-09-15T16:02:52.425Z,83.22
2022-09-15T16:05:21.473Z,83.71
2022-09-15T16:07:50.544Z,84.20
2022-09-15T16:10:20.263Z,84.39
2022-09-15T16:12:47.422Z,84.74
2022-09-15T16:15:17.341Z,84.23
2022-09-15T16:17:46.696Z,84.32
2022-09-15T16:20:15.267Z,84.99
2022-09-15T16:22:42.124Z,85.22
2022-09-15T16:25:38.215Z,85.08
2022-09-15T16:28:04.870Z,84.89
2022-09-15T16:30:32.333Z,85.02
2022-09-15T16:32:59.027Z,85.88
2022-09-15T16:35:39.029Z,86.00
2022-09-15T16:38:06.632Z,85.93
2022-09-15T16:40:33.911Z,86.34
2022-09-15T16:43:00.196Z,86.62
2022-09-15T16:45:38.252Z,87.28
2022-09-15T16:48:08.176Z,86.76
2022-09-15T16:50:34.867Z,87.32
2022-09-15T16:53:01.418Z,87.60
2022-09-15T16:55:41.991Z,87.96
2022-09-15T16:58:08.186Z,87.65
2022-09-15T17:00:36.205Z,88.02
2022-09-15T17:03:03.829Z,87.91
2022-09-15T17:05:39.998Z,88.20
2022-09-15T17:08:08.751Z,88.74
2022-09-15T17:10:35.577Z,88.94
2022-09-15T17:13:02.407Z,89.39
2022-09-15T17:15:34.954Z,89.59
2022-09-15T17:18:01.989Z,90.44
2022-09-15T17:20:28.598Z,90.84
2022-09-15T17:22:57.140Z,90.86
2022-09-15T17:25:26.295Z,91.17
2022-09-15T17:27:53.510Z,91.62
2022-09-15T17:30:25.039Z,92.01
2022-09-15T17:32:51.506Z,92.25
2022-09-15T17:35:22.322Z,92.07
2022-09-15T17:37:49.322Z,92.43
2022-09-15T17:40:17.154Z,92.74
2022-09-15T17:42:44.372Z,93.03
2022-09-15T17:45:27.656Z,92.68
2022-09-15T17:47:53.865Z,93.66
2022-09-15T17:50:22.468Z,93.45
2022-09-15T17:52:49.646Z,93.52
2022-09-15T17:55:15.912Z,93.78
2022-09-15T17:57:42.365Z,93.99
2022-09-15T18:00:11.104Z,94.16
2022-09-15T18:02:42.488Z,94.08
2022-09-15T18:05:19.919Z,94.05
2022-09-15T18:07:46.618Z,94.82
2022-09-15T18:10:15.296Z,94.79
2022-09-15T18:12:44.162Z,95.05
2022-09-15T18:15:18.093Z,95.86
2022-09-15T18:17:45.647Z,95.18
2022-09-15T18:20:14.416Z,95.57
2022-09-15T18:22:41.934Z,95.75
2022-09-15T18:25:16.152Z,96.30
2022-09-15T18:27:43.040Z,96.11
2022-09-15T18:30:10.859Z,96.33
2022-09-15T18:32:38.864Z,96.91
2022-09-15T18:35:06.203Z,96.38
2022-09-15T18:37:32.508Z,96.32
2022-09-15T18:39:58.874Z,96.52
2022-09-15T18:42:28.480Z,97.34
2022-09-15T18:44:57.580Z,97.28
2022-09-15T18:47:24.043Z,97.68
2022-09-15T18:49:50.679Z,96.83
2022-09-15T18:52:17.207Z,96.02
2022-09-15T18:54:43.963Z,95.69
2022-09-15T18:57:10.776Z,95.47
2022-09-15T18:59:38.562Z,95.15
2022-09-15T19:02:05.757Z,94.87
2022-09-15T19:04:36.114Z,94.29
2022-09-15T19:07:04.965Z,93.89
2022-09-15T19:09:31.393Z,93.74
2022-09-15T19:11:57.991Z,93.86
2022-09-15T19:14:27.061Z,94.43
2022-09-15T19:16:58.187Z,94.07
2022-09-15T19:19:25.602Z,94.06
2022-09-15T19:21:51.973Z,94.17
2022-09-15T19:24:18.381Z,93.42
2022-09-15T19:26:46.243Z,93.28
2022-09-15T19:29:14.827Z,93.57
2022-09-15T19:31:42.229Z,93.39
2022-09-15T19:34:09.712Z,92.85
2022-09-15T19:36:36.336Z,92.96
2022-09-15T19:39:03.274Z,92.63
2022-09-15T19:41:30.485Z,92.61
2022-09-15T19:43:56.942Z,92.79
2022-09-15T19:46:24.611Z,93.20
2022-09-15T19:48:52.709Z,92.91
2022-09-15T19:51:19.875Z,93.19
2022-09-15T19:53:46.945Z,93.36
2022-09-15T19:56:21.608Z,93.38
2022-09-15T19:58:48.964Z,93.57
2022-09-15T20:01:15.472Z,93.46
2022-09-15T20:03:43.506Z,94.21
2022-09-15T20:06:10.006Z,95.90
2022-09-15T20:08:37.585Z,96.15
2022-09-15T20:11:08.451Z,96.53
2022-09-15T20:13:38.672Z,96.44
2022-09-15T20:16:05.449Z,96.43
2022-09-15T20:18:32.871Z,96.34
2022-09-15T20:21:02.161Z,96.99
2022-09-15T20:23:28.559Z,97.02
2022-09-15T20:26:00.407Z,97.27
2022-09-15T20:28:27.918Z,96.81
2022-09-15T20:31:18.710Z,97.02
2022-09-15T20:33:46.288Z,97.00
2022-09-15T20:36:18.967Z,97.00
2022-09-15T20:38:46.899Z,97.45
2022-09-15T20:41:15.082Z,97.88
2022-09-15T20:43:42.462Z,98.07
2022-09-15T20:46:12.091Z,98.28
2022-09-15T20:48:38.940Z,98.57
2022-09-15T20:51:17.208Z,98.75
2022-09-15T20:53:46.546Z,98.79
2022-09-15T20:56:15.072Z,98.49
2022-09-15T20:58:41.797Z,98.71
2022-09-15T21:01:17.725Z,98.91
2022-09-15T21:03:45.250Z,99.35
2022-09-15T21:06:17.701Z,99.29
2022-09-15T21:08:46.972Z,99.47
2022-09-15T21:11:15.179Z,99.79
2022-09-15T21:13:42.678Z,100.00
2022-09-15T21:16:13.414Z,100.00
2022-09-15T21:18:41.759Z,100.00
2022-09-15T21:21:12.351Z,100.00
2022-09-15T21:23:50.478Z,100.00
2022-09-15T21:26:18.879Z,100.00
2022-09-15T21:28:45.991Z,100.00
2022-09-15T21:31:17.130Z,100.00
2022-09-15T21:33:45.503Z,100.00
2022-09-15T21:36:19.002Z,99.87
2022-09-15T21:38:46.003Z,99.72
2022-09-15T21:41:15.834Z,99.44
2022-09-15T21:43:45.561Z,99.49
2022-09-15T21:46:14.758Z,99.68
2022-09-15T21:48:41.694Z,100.00
2022-09-15T21:51:11.091Z,99.86
2022-09-15T21:53:37.873Z,100.00
2022-09-15T21:56:08.325Z,100.00
2022-09-15T21:58:41.737Z,100.00
2022-09-15T22:01:14.223Z,100.00
2022-09-15T22:03:41.628Z,100.00
2022-09-15T22:06:11.857Z,100.00
2022-09-15T22:08:39.158Z,100.00
2022-09-15T22:11:06.951Z,100.00
2022-09-15T22:13:35.793Z,100.00
2022-09-15T22:16:06.256Z,100.00
2022-09-15T22:18:36.218Z,100.00
2022-09-15T22:21:10.795Z,100.00
2022-09-15T22:23:37.974Z,100.00
2022-09-15T22:26:07.047Z,100.00
2022-09-15T22:28:33.729Z,100.00
2022-09-15T22:31:02.070Z,100.00
2022-09-15T22:33:29.169Z,100.00
2022-09-15T22:35:58.675Z,100.00
2022-09-15T22:38:27.930Z,100.00
2022-09-15T22:40:54.618Z,100.00
2022-09-15T22:43:21.236Z,100.00
2022-09-15T22:45:47.836Z,100.00
2022-09-15T22:48:14.176Z,100.00
2022-09-15T22:50:43.386Z,100.00
2022-09-15T22:53:12.212Z,100.00
2022-09-15T22:55:39.011Z,100.00
2022-09-15T22:58:05.647Z,100.00
2022-09-15T23:00:32.287Z,100.00
2022-09-15T23:02:59.319Z,100.00
2022-09-15T23:05:25.588Z,100.00
2022-09-15T23:07:51.772Z,100.00
2022-09-15T23:10:18.118Z,100.00
2022-09-15T23:12:44.273Z,100.00
2022-09-15T23:15:11.015Z,100.00
2022-09-15T23:17:38.345Z,100.00
2022-09-15T23:20:05.041Z,100.00
2022-09-15T23:22:31.283Z,100.00
2022-09-15T23:24:57.630Z,100.00
2022-09-15T23:27:23.862Z,100.00
2022-09-15T23:29:50.025Z,100.00
2022-09-15T23:32:16.473Z,100.00
2022-09-15T23:34:42.859Z,100.00
2022-09-15T23:37:08.990Z,100.00
2022-09-15T23:39:35.316Z,100.00
2022-09-15T23:42:01.562Z,100.00
2022-09-15T23:44:27.744Z,100.00
2022-09-15T23:46:54.210Z,100.00
2022-09-15T23:49:20.451Z,100.00
2022-09-15T23:51:46.607Z,100.00
2022-09-15T23:54:13.031Z,100.00
2022-09-15T23:56:39.157Z,100.00
2022-09-15T23:59:05.264Z,100.00
